Time;durP1;ratioP1;P1;durP2;ratioP2;P2;SDS_P1;SDS_P2;PMS_P1;PMS_P2;Temp;Humidity;BMP_temperature;BMP_pressure;BME280_temperature;BME280_humidity;BME280_pressure;Samples;Min_cycle;Max_cycle;Signal;HPM_P1;HPM_P2
2024/03/28 00:00:13;;;;;;;0.60;0.60;;;;;;;4.50;99.15;94293.66;29373;196;63004;-67
2024/03/28 00:00:48;;;;;;;0.60;0.60;;;;;;;4.49;99.09;94289.38;29394;240;64013;-56
2024/03/28 00:01:19;;;;;;;0.60;0.60;;;;;;;4.49;98.98;94293.97;29395;224;63004;-67
2024/03/28 00:01:50;;;;;;;0.50;0.50;;;;;;;4.46;99.18;94289.22;29395;308;63008;-55
2024/03/28 00:02:22;;;;;;;0.60;0.60;;;;;;;4.45;99.27;94285.75;29395;197;63004;-67
2024/03/28 00:02:53;;;;;;;0.60;0.60;;;;;;;4.45;98.85;94293.81;29395;216;63009;-67
2024/03/28 00:03:26;;;;;;;0.60;0.60;;;;;;;4.45;99.01;94280.38;29395;248;63005;-56
2024/03/28 00:03:57;;;;;;;0.60;0.60;;;;;;;4.49;98.28;94289.38;29395;222;63009;-55
2024/03/28 00:04:29;;;;;;;0.60;0.60;;;;;;;4.51;97.62;94279.09;29394;229;64016;-55
2024/03/28 00:05:00;;;;;;;0.60;0.60;;;;;;;4.50;97.12;94277.53;29395;266;63009;-66
2024/03/28 00:05:33;;;;;;;0.60;0.60;;;;;;;4.49;97.58;94281.31;29394;222;64009;-66
2024/03/28 00:06:04;;;;;;;0.60;0.60;;;;;;;4.46;97.57;94279.28;29395;300;63009;-65
2024/03/28 00:06:36;;;;;;;0.60;0.60;;;;;;;4.45;98.12;94280.38;29395;221;63004;-67
2024/03/28 00:07:08;;;;;;;0.60;0.60;;;;;;;4.47;98.15;94278.16;29395;305;63009;-55
2024/03/28 00:07:39;;;;;;;0.60;0.60;;;;;;;4.46;97.80;94281.97;29395;219;63004;-55
2024/03/28 00:08:10;;;;;;;0.60;0.60;;;;;;;4.46;97.85;94273.91;29395;230;63009;-55
2024/03/28 00:08:42;;;;;;;0.60;0.60;;;;;;;4.46;97.57;94281.97;29395;277;63004;-55
2024/03/28 00:09:13;;;;;;;0.50;0.50;;;;;;;4.45;96.98;94284.97;29395;258;63008;-66
2024/03/28 00:09:45;;;;;;;0.60;0.60;;;;;;;4.45;97.48;94280.38;29395;226;63005;-55
2024/03/28 00:10:16;;;;;;;0.60;0.60;;;;;;;4.46;97.71;94281.97;29395;219;63009;-64
2024/03/28 00:10:52;;;;;;;0.60;0.60;;;;;;;4.46;97.41;94273.91;29394;218;64009;-55
2024/03/28 00:11:24;;;;;;;0.60;0.60;;;;;;;4.46;97.44;94268.53;29394;218;64013;-55
2024/03/28 00:11:55;;;;;;;0.60;0.60;;;;;;;4.49;97.23;94273.28;29394;237;64005;-56
2024/03/28 00:12:27;;;;;;;0.50;0.50;;;;;;;4.50;96.83;94274.84;29395;254;63009;-55
2024/03/28 00:12:58;;;;;;;0.60;0.60;;;;;;;4.52;96.73;94269.13;29395;203;63005;-56
2024/03/28 00:13:32;;;;;;;0.60;0.60;;;;;;;4.53;96.68;94279.56;29395;390;63009;-55
2024/03/28 00:14:05;;;;;;;0.60;0.60;;;;;;;4.52;96.28;94282.56;29395;342;63015;-53
2024/03/28 00:14:38;;;;;;;0.60;0.60;;;;;;;4.54;96.20;94289.19;29395;360;63009;-55
2024/03/28 00:15:09;;;;;;;0.60;0.60;;;;;;;4.55;95.59;94289.97;29395;223;63004;-67
2024/03/28 00:15:42;;;;;;;0.50;0.50;;;;;;;4.52;95.38;94294.09;29395;225;63017;-55
2024/03/28 00:16:14;;;;;;;0.60;0.60;;;;;;;4.51;95.71;94292.50;29395;232;63004;-55
2024/03/28 00:16:47;;;;;;;0.52;0.52;;;;;;;4.49;95.85;94294.75;29394;202;64013;-67
2024/03/28 00:17:18;;;;;;;0.60;0.60;;;;;;;4.51;95.74;94297.09;29394;278;64009;-54
2024/03/28 00:17:49;;;;;;;0.60;0.60;;;;;;;4.48;95.73;94293.19;29395;207;63009;-55
2024/03/28 00:18:24;;;;;;;0.60;0.60;;;;;;;4.46;96.00;94292.69;29395;214;63005;-55
2024/03/28 00:18:55;;;;;;;0.57;0.57;;;;;;;4.47;95.52;94286.22;29395;353;63017;-55
2024/03/28 00:19:27;;;;;;;0.60;0.60;;;;;;;4.50;95.28;94280.22;29395;214;63005;-55
2024/03/28 00:19:59;;;;;;;0.60;0.60;;;;;;;4.47;95.25;94288.12;29395;226;63009;-55
2024/03/28 00:20:30;;;;;;;0.60;0.60;;;;;;;4.45;95.24;94293.81;29395;257;63005;-68
2024/03/28 00:21:03;;;;;;;0.60;0.60;;;;;;;4.46;95.59;94290.03;29395;238;63009;-70
2024/03/28 00:21:38;;;;;;;0.60;0.60;;;;;;;4.48;95.49;94277.06;29395;204;63004;-56
2024/03/28 00:22:09;;;;;;;0.60;0.60;;;;;;;4.46;95.45;94276.59;29394;236;64013;-68
2024/03/28 00:22:40;;;;;;;0.60;0.60;;;;;;;4.46;95.44;94275.81;29394;288;64009;-55
2024/03/28 00:23:12;;;;;;;0.57;0.57;;;;;;;4.48;95.13;94277.06;29394;202;64013;-67
2024/03/28 00:23:44;;;;;;;0.60;0.60;;;;;;;4.46;95.18;94279.28;29395;224;63004;-55
2024/03/28 00:24:18;;;;;;;0.60;0.60;;;;;;;4.43;95.11;94274.53;29395;233;63008;-55
2024/03/28 00:24:49;;;;;;;0.60;0.60;;;;;;;4.43;95.72;94271.06;29395;240;63005;-68
2024/03/28 00:25:20;;;;;;;0.60;0.60;;;;;;;4.45;95.17;94266.16;29395;226;63009;-55
2024/03/28 00:25:53;;;;;;;0.60;0.60;;;;;;;4.42;95.28;94267.59;29395;227;63005;-55
2024/03/28 00:26:24;;;;;;;0.60;0.60;;;;;;;4.44;94.72;94270.75;29394;244;64002;-58
2024/03/28 00:26:55;;;;;;;0.60;0.60;;;;;;;4.43;94.93;94263.81;29394;217;64009;-55
2024/03/28 00:27:27;;;;;;;0.60;0.60;;;;;;;4.44;94.77;94269.97;29395;260;63009;-66
2024/03/28 00:28:04;;;;;;;0.60;0.60;;;;;;;4.45;94.95;94261.59;29395;230;63005;-56
2024/03/28 00:28:36;;;;;;;0.60;0.60;;;;;;;4.47;93.96;94264.75;29395;233;63009;-55
2024/03/28 00:29:07;;;;;;;0.60;0.60;;;;;;;4.45;93.92;94258.91;29395;206;63004;-56
2024/03/28 00:29:39;;;;;;;0.60;0.60;;;;;;;4.46;94.03;94265.06;29395;211;63009;-68
2024/03/28 00:30:14;;;;;;;0.60;0.60;;;;;;;4.41;94.59;94260.66;29395;204;63000;-56
2024/03/28 00:30:47;;;;;;;0.60;0.60;;;;;;;4.36;94.44;94269.66;29395;255;63009;-67
2024/03/28 00:31:18;;;;;;;1.15;1.10;;;;;;;4.34;94.61;94273.75;29394;199;64008;-55
2024/03/28 00:31:50;;;;;;;0.60;0.60;;;;;;;4.31;95.12;94275.16;29394;273;64013;-67
2024/03/28 00:32:21;;;;;;;0.60;0.60;;;;;;;4.29;95.55;94280.06;29395;203;63005;-56
2024/03/28 00:32:52;;;;;;;0.60;0.60;;;;;;;4.28;95.86;94285.75;29395;202;63009;-55
2024/03/28 00:33:23;;;;;;;0.60;0.60;;;;;;;4.25;96.84;94278.31;29395;227;63005;-54
2024/03/28 00:33:54;;;;;;;0.60;0.60;;;;;;;4.21;97.05;94282.75;29395;239;63009;-55
2024/03/28 00:34:26;;;;;;;0.57;0.57;;;;;;;4.17;96.71;94282.56;29395;292;63009;-54
2024/03/28 00:34:58;;;;;;;0.60;0.60;;;;;;;4.16;96.95;94290.97;29395;220;63017;-67
2024/03/28 00:35:30;;;;;;;0.60;0.60;;;;;;;4.15;96.94;94286.72;29395;246;63005;-66
2024/03/28 00:36:02;;;;;;;0.60;0.60;;;;;;;4.14;97.35;94282.44;29395;222;63019;-55
2024/03/28 00:36:33;;;;;;;0.60;0.60;;;;;;;4.12;97.19;94281.97;29394;235;64009;-55
2024/03/28 00:37:05;;;;;;;0.60;0.60;;;;;;;4.12;97.35;94273.91;29394;199;64013;-55
2024/03/28 00:37:36;;;;;;;0.60;0.60;;;;;;;4.11;96.98;94273.12;29395;271;63004;-55
2024/03/28 00:38:07;;;;;;;0.60;0.60;;;;;;;4.10;97.36;94276.13;29395;213;63020;-55
2024/03/28 00:38:39;;;;;;;0.60;0.60;;;;;;;4.11;97.09;94272.34;29395;254;63004;-55
2024/03/28 00:39:10;;;;;;;0.60;0.60;;;;;;;4.11;96.67;94269.66;29394;218;64013;-55
2024/03/28 00:39:48;;;;;;;0.60;0.60;;;;;;;4.13;96.37;94276.28;29395;244;63011;-67
2024/03/28 00:40:19;;;;;;;0.60;0.60;;;;;;;4.14;96.45;94277.09;29395;347;63009;-55
2024/03/28 00:40:53;;;;;;;0.60;0.60;;;;;;;4.13;95.90;94276.28;29395;288;63005;-67
2024/03/28 00:41:25;;;;;;;0.60;0.60;;;;;;;4.11;96.07;94273.12;29394;200;64013;-54
2024/03/28 00:41:57;;;;;;;0.60;0.60;;;;;;;4.10;96.09;94281.50;29395;282;63005;-55
2024/03/28 00:42:28;;;;;;;0.60;0.60;;;;;;;4.10;96.18;94284.19;29395;198;63009;-67
2024/03/28 00:42:59;;;;;;;0.60;0.60;;;;;;;4.09;96.55;94279.91;29395;197;63005;-55
2024/03/28 00:43:30;;;;;;;0.60;0.60;;;;;;;4.08;96.77;94283.69;29395;239;63009;-55
2024/03/28 00:44:03;;;;;;;0.60;0.60;;;;;;;4.09;96.32;94279.91;29394;213;64009;-70
2024/03/28 00:44:34;;;;;;;0.60;0.60;;;;;;;4.10;96.66;94274.22;29395;287;63009;-55
2024/03/28 00:45:06;;;;;;;0.60;0.60;;;;;;;4.10;96.74;94281.50;29373;234;63004;-55
2024/03/28 00:45:38;;;;;;;0.60;0.60;;;;;;;4.09;96.57;94274.53;29395;229;63009;-55
2024/03/28 00:46:09;;;;;;;0.60;0.60;;;;;;;4.11;96.44;94266.97;29395;197;63004;-55
2024/03/28 00:46:41;;;;;;;0.60;0.60;;;;;;;4.14;95.82;94274.41;29395;233;63008;-55
2024/03/28 00:47:12;;;;;;;0.60;0.60;;;;;;;4.14;95.73;94267.13;29394;261;64009;-55
2024/03/28 00:47:44;;;;;;;0.60;0.60;;;;;;;4.15;95.47;94270.59;29395;197;63009;-55
2024/03/28 00:48:19;;;;;;;0.60;0.60;;;;;;;4.15;96.12;94273.28;29395;236;63005;-55
2024/03/28 00:48:50;;;;;;;0.60;0.60;;;;;;;4.19;95.68;94274.22;29395;263;63009;-55
2024/03/28 00:49:24;;;;;;;0.60;0.60;;;;;;;4.21;95.17;94272.00;29395;225;63010;-55
2024/03/28 00:49:55;;;;;;;0.60;0.60;;;;;;;4.22;94.51;94269.00;29395;267;63009;-65
2024/03/28 00:50:26;;;;;;;0.60;0.60;;;;;;;4.20;94.52;94265.84;29394;221;64009;-55
2024/03/28 00:51:00;;;;;;;0.60;0.60;;;;;;;4.17;94.89;94266.47;29395;227;63009;-67
2024/03/28 00:51:31;;;;;;;0.60;0.60;;;;;;;4.17;95.37;94271.06;29395;219;63011;-55
2024/03/28 00:52:03;;;;;;;0.60;0.60;;;;;;;4.17;95.20;94268.38;29395;197;63018;-55
2024/03/28 00:52:34;;;;;;;0.50;0.50;;;;;;;4.17;95.40;94265.69;29395;202;63004;-57
2024/03/28 00:53:05;;;;;;;0.60;0.60;;;;;;;4.21;94.87;94266.63;29395;246;63008;-55
2024/03/28 00:53:36;;;;;;;0.60;0.60;;;;;;;4.20;94.73;94268.53;29395;208;63004;-54
2024/03/28 00:54:07;;;;;;;0.60;0.60;;;;;;;4.20;94.98;94268.53;29395;246;63004;-55
2024/03/28 00:54:39;;;;;;;0.60;0.60;;;;;;;4.16;95.27;94264.91;29395;209;63005;-68
2024/03/28 00:55:10;;;;;;;0.77;0.77;;;;;;;4.17;95.21;94260.31;29373;209;63009;-55
2024/03/28 00:55:42;;;;;;;0.50;0.50;;;;;;;4.15;95.07;94257.97;29394;239;64009;-55
2024/03/28 00:56:13;;;;;;;0.60;0.60;;;;;;;4.12;95.13;94260.50;29395;218;63009;-55
2024/03/28 00:56:44;;;;;;;0.60;0.60;;;;;;;4.12;95.64;94257.81;29395;228;63005;-55
2024/03/28 00:57:16;;;;;;;0.60;0.60;;;;;;;4.12;94.89;94255.13;29395;229;63009;-69
2024/03/28 00:57:47;;;;;;;0.60;0.60;;;;;;;4.14;95.17;94260.97;29395;198;63005;-55
2024/03/28 00:58:18;;;;;;;0.60;0.60;;;;;;;4.13;94.73;94267.44;29395;332;63009;-67
2024/03/28 00:58:50;;;;;;;0.60;0.60;;;;;;;4.09;95.04;94261.91;29395;208;63004;-55
2024/03/28 00:59:21;;;;;;;0.60;0.60;;;;;;;4.08;95.17;94267.59;29395;253;63009;-55
2024/03/28 00:59:52;;;;;;;0.60;0.60;;;;;;;4.09;95.43;94274.53;29395;210;63010;-69
2024/03/28 01:00:23;;;;;;;0.60;0.60;;;;;;;4.11;95.01;94265.09;29394;290;64013;-66
2024/03/28 01:00:55;;;;;;;0.60;0.60;;;;;;;4.12;94.65;94265.88;29395;230;63004;-54
2024/03/28 01:01:26;;;;;;;0.60;0.60;;;;;;;4.11;94.51;94256.25;29395;248;63009;-54
2024/03/28 01:01:57;;;;;;;0.60;0.60;;;;;;;4.12;94.92;94263.19;29394;275;64005;-55
2024/03/28 01:02:29;;;;;;;0.52;0.52;;;;;;;4.14;94.75;94264.44;29395;209;63009;-55
2024/03/28 01:03:00;;;;;;;0.60;0.60;;;;;;;4.14;94.37;94258.28;29395;221;63005;-69
2024/03/28 01:03:31;;;;;;;0.60;0.60;;;;;;;4.14;94.10;94260.97;29395;198;63009;-55
2024/03/28 01:04:03;;;;;;;0.60;0.60;;;;;;;4.15;94.26;94262.56;29395;236;63005;-55
2024/03/28 01:04:34;;;;;;;0.52;0.52;;;;;;;4.12;94.07;94257.81;29395;242;63009;-55
2024/03/28 01:05:07;;;;;;;0.60;0.60;;;;;;;4.10;93.99;94258.12;29395;249;63005;-55
2024/03/28 01:05:39;;;;;;;0.60;0.60;;;;;;;4.05;94.40;94260.97;29394;204;64013;-69
2024/03/28 01:06:11;;;;;;;0.60;0.60;;;;;;;4.07;94.64;94263.34;29395;291;63004;-55
2024/03/28 01:06:42;;;;;;;0.60;0.60;;;;;;;4.03;95.05;94255.13;29395;199;63009;-55
2024/03/28 01:07:14;;;;;;;0.60;0.60;;;;;;;4.01;95.31;94252.75;29395;217;63004;-56
2024/03/28 01:07:45;;;;;;;0.60;0.60;;;;;;;4.01;95.17;94263.50;29395;217;63009;-55
2024/03/28 01:08:18;;;;;;;0.60;0.60;;;;;;;4.01;94.87;94257.34;29395;279;63004;-56
2024/03/28 01:08:50;;;;;;;0.60;0.60;;;;;;;3.99;95.36;94263.00;29395;284;63008;-55
2024/03/28 01:09:21;;;;;;;0.60;0.60;;;;;;;3.96;95.44;94260.97;29395;239;63010;-69
2024/03/28 01:09:52;;;;;;;0.60;0.60;;;;;;;3.96;95.14;94260.97;29395;211;63009;-55
2024/03/28 01:10:24;;;;;;;0.60;0.60;;;;;;;3.99;95.18;94260.34;29395;204;63005;-68
2024/03/28 01:10:55;;;;;;;0.60;0.60;;;;;;;4.01;94.98;94251.97;29394;247;64013;-55
2024/03/28 01:11:26;;;;;;;0.50;0.50;;;;;;;4.00;95.04;94255.75;29395;205;63005;-69
2024/03/28 01:11:58;;;;;;;0.60;0.60;;;;;;;4.00;95.45;94258.44;29394;220;64013;-54
2024/03/28 01:12:29;;;;;;;0.60;0.60;;;;;;;3.99;95.67;94260.34;29395;223;63005;-55
2024/03/28 01:13:04;;;;;;;0.60;0.60;;;;;;;4.00;95.30;94253.87;29395;227;63009;-55
2024/03/28 01:13:35;;;;;;;0.60;0.60;;;;;;;4.06;94.76;94253.72;29395;227;63004;-56
2024/03/28 01:14:06;;;;;;;2.10;1.77;;;;;;;4.11;93.98;94256.25;29395;222;63009;-55
2024/03/28 01:14:38;;;;;;;0.60;0.60;;;;;;;4.11;93.79;94256.25;29395;207;63004;-55
2024/03/28 01:15:09;;;;;;;0.60;0.60;;;;;;;4.10;93.68;94246.63;29395;219;63009;-67
2024/03/28 01:15:40;;;;;;;0.60;0.60;;;;;;;4.12;93.57;94249.78;29395;204;63010;-56
2024/03/28 01:16:15;;;;;;;0.60;0.60;;;;;;;4.11;93.44;94256.25;29394;202;64013;-67
2024/03/28 01:16:46;;;;;;;0.60;0.60;;;;;;;4.11;93.37;94253.56;29395;233;63005;-56
2024/03/28 01:17:18;;;;;;;0.60;0.60;;;;;;;4.09;93.23;94247.72;29395;217;63009;-54
2024/03/28 01:17:50;;;;;;;0.60;0.60;;;;;;;4.09;94.04;94243.12;29395;210;63005;-54
2024/03/28 01:18:24;;;;;;;0.60;0.60;;;;;;;4.10;93.75;94247.41;29394;202;64013;-68
2024/03/28 01:18:55;;;;;;;0.55;0.55;;;;;;;4.07;93.82;94244.56;29395;342;63005;-55
2024/03/28 01:19:27;;;;;;;0.60;0.60;;;;;;;4.10;93.90;94243.94;29394;203;64013;-68
2024/03/28 01:19:58;;;;;;;0.60;0.60;;;;;;;4.10;93.68;94243.94;29395;210;63005;-55
2024/03/28 01:20:29;;;;;;;0.60;0.60;;;;;;;4.09;93.96;94243.12;29395;218;63009;-56
2024/03/28 01:21:05;;;;;;;0.60;0.60;;;;;;;4.07;93.64;94247.25;29395;236;63004;-66
2024/03/28 01:21:37;;;;;;;0.60;0.60;;;;;;;4.09;94.05;94248.50;29395;224;63004;-67
2024/03/28 01:22:08;;;;;;;0.60;0.60;;;;;;;4.10;93.21;94244.72;29394;233;64009;-55
2024/03/28 01:22:40;;;;;;;0.60;0.60;;;;;;;4.11;93.32;94240.94;29395;231;63025;-67
2024/03/28 01:23:11;;;;;;;0.60;0.60;;;;;;;4.11;93.30;94248.19;29395;251;63004;-55
2024/03/28 01:23:43;;;;;;;0.60;0.60;;;;;;;4.10;93.47;94243.94;29395;235;63008;-55
2024/03/28 01:24:14;;;;;;;0.60;0.60;;;;;;;4.09;93.61;94240.47;29395;217;63005;-55
2024/03/28 01:24:46;;;;;;;0.70;0.70;;;;;;;4.10;93.26;94239.34;29395;223;63009;-67
2024/03/28 01:25:17;;;;;;;0.60;0.60;;;;;;;4.11;93.27;94235.56;29395;205;63005;-55
2024/03/28 01:25:49;;;;;;;0.60;0.60;;;;;;;4.13;92.96;94235.25;29395;244;63009;-56
2024/03/28 01:26:20;;;;;;;0.50;0.50;;;;;;;4.17;92.85;94228.12;29395;206;63005;-69
2024/03/28 01:26:52;;;;;;;0.60;0.60;;;;;;;4.17;92.62;94241.53;29395;203;63011;-55
2024/03/28 01:27:23;;;;;;;0.60;0.60;;;;;;;4.12;92.22;94237.13;29371;227;64021;-55
2024/03/28 01:27:54;;;;;;;0.60;0.60;;;;;;;4.10;92.51;94239.34;29395;248;63013;-55
2024/03/28 01:28:26;;;;;;;0.60;0.60;;;;;;;4.08;92.58;94232.72;29394;253;64009;-55
2024/03/28 01:28:57;;;;;;;0.60;0.60;;;;;;;4.07;92.92;94236.50;29395;283;63009;-68
2024/03/28 01:29:28;;;;;;;0.60;0.60;;;;;;;4.04;93.13;94236.03;29395;218;63004;-55
2024/03/28 01:29:59;;;;;;;0.60;0.60;;;;;;;4.01;93.18;94233.19;29395;218;63009;-55
2024/03/28 01:30:30;;;;;;;0.60;0.60;;;;;;;3.98;93.32;94237.28;29395;322;63004;-69
2024/03/28 01:31:04;;;;;;;0.60;0.60;;;;;;;4.01;93.21;94231.28;29395;196;63008;-56
2024/03/28 01:31:35;;;;;;;0.60;0.60;;;;;;;4.02;93.23;94232.88;29395;216;63005;-55
2024/03/28 01:32:07;;;;;;;0.60;0.60;;;;;;;4.03;93.02;94236.34;29395;209;63009;-68
2024/03/28 01:32:38;;;;;;;0.60;0.60;;;;;;;4.00;93.03;94243.12;29394;204;64009;-55
2024/03/28 01:33:09;;;;;;;0.60;0.60;;;;;;;3.97;92.93;94235.72;29395;223;63009;-55
2024/03/28 01:33:40;;;;;;;0.60;0.60;;;;;;;3.95;93.65;94237.91;29395;250;63005;-55
2024/03/28 01:34:12;;;;;;;0.60;0.60;;;;;;;3.96;93.24;94236.03;29395;267;63009;-55
2024/03/28 01:34:43;;;;;;;0.62;0.62;;;;;;;3.95;93.27;94232.56;29395;252;63005;-55
2024/03/28 01:35:15;;;;;;;0.60;0.60;;;;;;;3.95;93.84;94237.91;29371;214;64013;-67
2024/03/28 01:35:46;;;;;;;0.60;0.60;;;;;;;3.99;93.65;94235.41;29395;223;63004;-56
2024/03/28 01:36:17;;;;;;;0.60;0.60;;;;;;;4.00;93.03;94235.09;29395;205;63012;-55
2024/03/28 01:36:49;;;;;;;0.60;0.60;;;;;;;3.99;93.24;94236.19;29395;243;63004;-55
2024/03/28 01:37:20;;;;;;;0.60;0.60;;;;;;;3.99;93.45;94230.81;29394;215;64013;-67
2024/03/28 01:37:51;;;;;;;0.60;0.60;;;;;;;3.96;93.25;94239.50;29395;228;63004;-55
2024/03/28 01:38:23;;;;;;;0.60;0.60;;;;;;;3.95;92.87;94242.50;29395;234;63008;-55
2024/03/28 01:38:54;;;;;;;0.60;0.60;;;;;;;3.93;93.72;94234.75;29395;209;63004;-55
2024/03/28 01:39:26;;;;;;;0.60;0.60;;;;;;;3.94;92.98;94236.34;29395;206;63009;-70
2024/03/28 01:39:59;;;;;;;0.60;0.60;;;;;;;3.93;93.49;94242.81;29395;311;63005;-55
2024/03/28 01:40:31;;;;;;;0.52;0.52;;;;;;;3.89;93.53;94233.81;29394;214;64013;-55
2024/03/28 01:41:03;;;;;;;0.60;0.60;;;;;;;3.86;93.58;94242.47;29395;220;63005;-55
2024/03/28 01:41:35;;;;;;;0.60;0.60;;;;;;;3.84;93.52;94236.63;29395;262;63009;-56
2024/03/28 01:42:08;;;;;;;0.60;0.60;;;;;;;3.79;94.17;94239.50;29395;202;63005;-55
2024/03/28 01:42:39;;;;;;;0.60;0.60;;;;;;;3.81;94.13;94234.59;29395;198;63009;-56
2024/03/28 01:43:10;;;;;;;0.60;0.60;;;;;;;3.80;93.90;94233.03;29395;205;63004;-55
2024/03/28 01:43:42;;;;;;;0.60;0.60;;;;;;;3.81;93.90;94231.91;29395;215;63009;-56
2024/03/28 01:44:13;;;;;;;0.52;0.52;;;;;;;3.86;94.12;94234.44;29395;216;63004;-72
2024/03/28 01:44:46;;;;;;;0.68;0.68;;;;;;;3.89;93.21;94231.13;29395;253;63009;-55
2024/03/28 01:45:17;;;;;;;1.20;1.17;;;;;;;3.90;93.26;94221.97;29394;233;64004;-69
2024/03/28 01:45:49;;;;;;;0.60;0.60;;;;;;;3.89;93.15;94223.06;29394;220;64014;-68
2024/03/28 01:46:21;;;;;;;0.60;0.60;;;;;;;3.89;93.30;94223.06;29395;211;63005;-55
2024/03/28 01:46:52;;;;;;;0.70;0.70;;;;;;;3.91;92.60;94215.50;29395;215;63009;-55
2024/03/28 01:47:24;;;;;;;0.60;0.60;;;;;;;3.96;92.38;94218.03;29395;292;63005;-55
2024/03/28 01:47:55;;;;;;;0.60;0.60;;;;;;;3.99;92.27;94212.03;29395;234;63015;-56
2024/03/28 01:48:28;;;;;;;0.60;0.60;;;;;;;4.00;92.15;94212.81;29395;224;63005;-55
2024/03/28 01:49:00;;;;;;;0.55;0.55;;;;;;;3.98;92.15;94210.47;29394;221;64013;-56
2024/03/28 01:49:32;;;;;;;0.60;0.60;;;;;;;3.95;92.30;94208.41;29395;209;63005;-55
2024/03/28 01:50:04;;;;;;;0.60;0.60;;;;;;;3.92;92.15;94211.72;29395;214;63014;-55
2024/03/28 01:50:36;;;;;;;0.60;0.60;;;;;;;3.90;92.92;94211.25;29395;252;63004;-55
2024/03/28 01:51:07;;;;;;;0.60;0.60;;;;;;;3.87;92.79;94214.56;29395;224;63009;-55
2024/03/28 01:51:40;;;;;;;0.60;0.60;;;;;;;3.86;93.24;94218.34;29395;219;63004;-55
2024/03/28 01:52:13;;;;;;;0.60;0.60;;;;;;;3.86;92.95;94215.66;29395;338;63009;-55
2024/03/28 01:52:45;;;;;;;0.70;0.70;;;;;;;3.86;93.32;94218.34;29373;209;63004;-55
2024/03/28 01:53:16;;;;;;;0.60;0.60;;;;;;;3.84;92.88;94215.19;29395;222;63008;-55
2024/03/28 01:53:49;;;;;;;0.60;0.60;;;;;;;3.83;93.04;94216.28;29395;292;63005;-55
2024/03/28 01:54:22;;;;;;;0.60;0.60;;;;;;;3.84;93.54;94214.38;29371;215;64014;-56
2024/03/28 01:54:54;;;;;;;0.60;0.60;;;;;;;3.80;93.35;94219.62;29373;202;63009;-70
2024/03/28 01:55:26;;;;;;;0.60;0.60;;;;;;;3.80;93.32;94218.84;29395;254;63016;-56
2024/03/28 01:55:57;;;;;;;0.60;0.60;;;;;;;3.80;93.18;94221.50;29373;199;63005;-55
2024/03/28 01:56:29;;;;;;;0.60;0.60;;;;;;;3.81;93.35;94215.81;29395;243;63009;-55
2024/03/28 01:57:05;;;;;;;0.60;0.60;;;;;;;3.81;93.16;94221.16;29395;236;63005;-55
2024/03/28 01:57:36;;;;;;;0.62;0.62;;;;;;;3.79;93.09;94212.69;29395;231;63009;-57
2024/03/28 01:58:11;;;;;;;0.60;0.60;;;;;;;3.78;93.29;94213.78;29395;196;63004;-55
2024/03/28 01:58:43;;;;;;;0.60;0.60;;;;;;;3.75;92.97;94222.47;29373;202;63009;-56
2024/03/28 01:59:15;;;;;;;0.60;0.60;;;;;;;3.73;93.60;94224.66;29373;198;63004;-56
2024/03/28 01:59:47;;;;;;;0.60;0.60;;;;;;;3.68;93.49;94217.56;29394;199;64013;-70
2024/03/28 02:00:20;;;;;;;0.60;0.60;;;;;;;3.66;93.75;94219.75;29395;245;63004;-54
2024/03/28 02:00:53;;;;;;;0.57;0.57;;;;;;;3.65;93.70;94215.50;29373;301;63009;-67
2024/03/28 02:01:24;;;;;;;0.60;0.60;;;;;;;3.64;94.24;94221.97;29373;211;63005;-55
2024/03/28 02:01:57;;;;;;;0.60;0.60;;;;;;;3.64;94.14;94215.81;29373;237;63009;-55
2024/03/28 02:02:29;;;;;;;0.60;0.60;;;;;;;3.61;94.19;94216.44;29373;276;63005;-56
2024/03/28 02:03:00;;;;;;;0.60;0.60;;;;;;;3.64;93.89;94218.50;29395;251;63009;-68
2024/03/28 02:03:33;;;;;;;0.60;0.60;;;;;;;3.65;94.08;94217.38;29373;206;63005;-55
2024/03/28 02:04:07;;;;;;;0.60;0.60;;;;;;;3.64;93.59;94210.44;29373;259;63009;-55
2024/03/28 02:04:39;;;;;;;0.60;0.60;;;;;;;3.62;94.12;94218.00;29373;230;63005;-55
2024/03/28 02:05:10;;;;;;;0.60;0.60;;;;;;;3.61;94.42;94208.37;29371;202;64023;-55
2024/03/28 02:05:42;;;;;;;0.60;0.60;;;;;;;3.62;94.23;94207.28;29394;231;63997;-55
2024/03/28 02:06:13;;;;;;;0.60;0.60;;;;;;;3.61;93.99;94216.44;29395;266;63009;-68
2024/03/28 02:06:44;;;;;;;0.60;0.60;;;;;;;3.59;94.23;94214.06;29395;263;63004;-55
2024/03/28 02:07:15;;;;;;;0.60;0.60;;;;;;;3.58;94.70;94217.06;29395;231;63009;-55
2024/03/28 02:07:46;;;;;;;0.60;0.60;;;;;;;3.59;95.27;94219.44;29395;202;63004;-70
2024/03/28 02:08:21;;;;;;;0.60;0.60;;;;;;;3.59;95.27;94213.28;29395;205;63008;-54
2024/03/28 02:08:52;;;;;;;0.60;0.60;;;;;;;3.58;95.24;94217.06;29395;216;63005;-55
2024/03/28 02:09:25;;;;;;;0.60;0.60;;;;;;;3.57;94.81;94215.47;29395;232;63009;-56
2024/03/28 02:09:57;;;;;;;0.60;0.60;;;;;;;3.56;94.95;94216.59;29395;204;63005;-55
2024/03/28 02:10:29;;;;;;;0.60;0.60;;;;;;;3.56;94.71;94213.91;29394;216;64004;-55
2024/03/28 02:11:01;;;;;;;0.60;0.60;;;;;;;3.55;94.99;94212.31;29395;208;63005;-68
2024/03/28 02:11:33;;;;;;;0.60;0.60;;;;;;;3.57;94.82;94220.84;29373;218;63009;-55
2024/03/28 02:12:05;;;;;;;0.60;0.60;;;;;;;3.57;95.01;94215.47;29395;232;63005;-55
2024/03/28 02:12:37;;;;;;;0.60;0.60;;;;;;;3.57;94.46;94220.84;29395;227;63009;-55
2024/03/28 02:13:12;;;;;;;0.60;0.60;;;;;;;3.57;94.73;94220.84;29373;234;63004;-55
2024/03/28 02:13:44;;;;;;;0.60;0.60;;;;;;;3.56;94.64;94224.63;29373;214;63004;-55
2024/03/28 02:14:15;;;;;;;0.60;0.60;;;;;;;3.55;95.04;94215.00;29373;272;63004;-55
2024/03/28 02:14:46;;;;;;;0.60;0.60;;;;;;;3.55;94.81;94220.38;29373;232;63009;-55
2024/03/28 02:15:17;;;;;;;0.60;0.60;;;;;;;3.56;95.12;94230.00;29395;246;63004;-55
2024/03/28 02:15:49;;;;;;;0.60;0.60;;;;;;;3.54;95.59;94227.62;29394;205;64013;-68
2024/03/28 02:16:23;;;;;;;1.08;1.08;;;;;;;3.53;95.29;94225.25;29371;227;64009;-55
2024/03/28 02:17:03;;;;;;;0.60;0.60;;;;;;;3.49;95.33;94226.97;29395;199;63009;-55
2024/03/28 02:17:48;;;;;;;0.60;0.60;;;;;;;3.51;95.35;94227.44;29395;254;63012;-55
2024/03/28 02:18:21;;;;;;;0.60;0.60;;;;;;;3.52;95.09;94223.66;29395;286;63009;-55
2024/03/28 02:18:58;;;;;;;0.60;0.60;;;;;;;3.51;95.54;94219.41;29373;237;63005;-55
2024/03/28 02:19:31;;;;;;;0.60;0.60;;;;;;;3.51;95.58;94222.09;29373;197;63009;-55
2024/03/28 02:20:03;;;;;;;0.60;0.60;;;;;;;3.51;95.94;94219.41;29373;337;63005;-55
2024/03/28 02:20:35;;;;;;;0.60;0.60;;;;;;;3.51;95.35;94219.41;29373;337;63009;-55
2024/03/28 02:21:06;;;;;;;0.60;0.60;;;;;;;3.49;95.62;94222.41;29373;296;63004;-55
2024/03/28 02:21:37;;;;;;;0.60;0.60;;;;;;;3.53;95.20;94226.03;29371;251;64013;-56
2024/03/28 02:22:08;;;;;;;0.60;0.60;;;;;;;3.54;94.77;94229.50;29373;202;63004;-55
2024/03/28 02:22:40;;;;;;;0.60;0.60;;;;;;;3.51;94.83;94219.41;29395;226;63008;-55
2024/03/28 02:23:11;;;;;;;0.60;0.60;;;;;;;3.51;94.75;94222.09;29373;238;63004;-68
2024/03/28 02:23:43;;;;;;;0.60;0.60;;;;;;;3.49;95.16;94218.94;29395;235;63009;-55
2024/03/28 02:24:14;;;;;;;0.60;0.60;;;;;;;3.48;95.56;94222.72;29395;222;63005;-55
2024/03/28 02:24:48;;;;;;;0.60;0.60;;;;;;;3.49;95.51;94224.28;29373;228;63009;-68
2024/03/28 02:25:19;;;;;;;0.60;0.60;;;;;;;3.50;95.72;94223.19;29373;292;63005;-55
2024/03/28 02:25:51;;;;;;;0.50;0.50;;;;;;;3.52;95.91;94221.00;29371;251;64013;-54
2024/03/28 02:26:23;;;;;;;0.60;0.60;;;;;;;3.52;95.47;94223.66;29373;222;63005;-69
2024/03/28 02:26:55;;;;;;;0.60;0.60;;;;;;;3.56;94.63;94222.72;29373;259;63009;-55
2024/03/28 02:27:26;;;;;;;0.60;0.60;;;;;;;3.56;94.58;94224.63;29373;211;63005;-56
2024/03/28 02:27:58;;;;;;;0.60;0.60;;;;;;;3.54;94.40;94216.09;29395;277;63009;-65
2024/03/28 02:28:34;;;;;;;0.60;0.60;;;;;;;3.53;94.96;94220.69;29395;237;63004;-55
2024/03/28 02:29:05;;;;;;;0.52;0.52;;;;;;;3.52;94.49;94219.09;29373;325;63009;-56
2024/03/28 02:29:37;;;;;;;0.60;0.60;;;;;;;3.53;94.87;94219.88;29373;202;63004;-54
2024/03/28 02:30:10;;;;;;;0.60;0.60;;;;;;;3.50;94.95;94215.94;29373;202;63009;-55
2024/03/28 02:30:41;;;;;;;0.60;0.60;;;;;;;3.50;95.34;94231.22;29395;242;63004;-54
2024/03/28 02:31:12;;;;;;;0.60;0.60;;;;;;;3.49;95.40;94218.94;29371;221;64014;-55
2024/03/28 02:31:44;;;;;;;0.60;0.60;;;;;;;3.48;95.45;94222.72;29371;222;64009;-55
2024/03/28 02:32:15;;;;;;;0.60;0.60;;;;;;;3.47;95.44;94221.91;29395;219;63009;-55
2024/03/28 02:32:46;;;;;;;0.60;0.60;;;;;;;3.47;95.88;94221.13;29395;209;63005;-54
2024/03/28 02:33:18;;;;;;;0.50;0.50;;;;;;;3.45;95.70;94228.72;29395;229;63009;-55
2024/03/28 02:33:49;;;;;;;0.60;0.60;;;;;;;3.46;95.63;94219.59;29395;250;63005;-55
2024/03/28 02:34:20;;;;;;;0.60;0.60;;;;;;;3.46;95.73;94222.25;29373;353;63009;-55